Time;durP1;ratioP1;P1;durP2;ratioP2;P2;SDS_P1;SDS_P2;PMS_P1;PMS_P2;Temp;Humidity;BMP_temperature;BMP_pressure;BME280_temperature;BME280_humidity;BME280_pressure;Samples;Min_cycle;Max_cycle;Signal;HPM_P1;HPM_P2
2022/04/06 00:06:53;;;;;;;6.35;3.60;;;;;;;;;;20753962;28;20506;-60
2022/04/06 00:16:54;;;;;;;9.80;5.78;;;;;;;;;;20754216;28;20057;-61
2022/04/06 00:26:57;;;;;;;9.50;6.38;;;;;;;;;;20751864;28;20085;-59
2022/04/06 00:36:59;;;;;;;7.65;4.85;;;;;;;;;;20751341;28;20061;-60
2022/04/06 00:47:02;;;;;;;8.43;4.75;;;;;;;;;;20749847;28;20054;-60
2022/04/06 00:57:05;;;;;;;9.23;4.22;;;;;;;;;;20750247;28;20065;-60
2022/04/06 01:07:06;;;;;;;7.97;4.03;;;;;;;;;;20749823;28;20050;-60
2022/04/06 01:17:09;;;;;;;5.63;3.05;;;;;;;;;;20748664;28;20133;-60
2022/04/06 01:27:12;;;;;;;5.00;2.47;;;8.50;64.50;;;;;;20748814;28;20046;-60
2022/04/06 01:37:18;;;;;;;6.55;4.18;;;;;;;;;;20746124;28;20061;-62
2022/04/06 01:47:24;;;;;;;5.47;2.85;;;;;;;;;;20748182;28;20050;-61
2022/04/06 01:57:35;;;;;;;6.75;2.42;;;;;;;;;;20747051;28;20457;-59
2022/04/06 02:07:39;;;;;;;5.95;2.28;;;;;;;;;;20747263;28;20153;-59
2022/04/06 02:17:44;;;;;;;3.67;1.92;;;;;;;;;;20747013;28;20092;-60
2022/04/06 02:27:50;;;;;;;3.17;1.83;;;;;;;;;;20746422;28;20050;-59
2022/04/06 02:37:52;;;;;;;3.78;1.63;;;;;;;;;;20744906;28;20057;-59
2022/04/06 02:47:54;;;;;;;3.55;2.08;;;;;;;;;;20744740;28;20137;-60
2022/04/06 02:57:56;;;;;;;3.83;2.35;;;;;;;;;;20758566;28;20136;-60
2022/04/06 03:07:59;;;;;;;3.00;2.10;;;;;;;;;;20758186;28;20054;-59
2022/04/06 03:18:04;;;;;;;2.80;1.88;;;;;;;;;;20757546;28;20049;-60
2022/04/06 03:28:07;;;;;;;2.90;2.05;;;;;;;;;;20758999;28;20089;-59
2022/04/06 03:38:10;;;;;;;3.72;1.88;;;;;;;;;;20755821;28;20080;-59
2022/04/06 03:48:13;;;;;;;3.83;2.20;;;;;;;;;;20755607;28;20054;-60
2022/04/06 03:58:14;;;;;;;4.80;2.28;;;;;;;;;;20754466;28;20049;-59
2022/04/06 04:08:18;;;;;;;3.53;1.98;;;;;;;;;;20754553;28;20050;-59
2022/04/06 04:18:21;;;;;;;3.00;2.15;;;;;;;;;;20751682;28;20453;-59
2022/04/06 04:28:23;;;;;;;6.03;2.30;;;;;;;;;;20753488;28;20161;-59
2022/04/06 04:38:26;;;;;;;4.40;3.00;;;;;;;;;;20751867;28;20076;-59
2022/04/06 04:48:34;;;;;;;5.68;3.83;;;;;;;;;;20750022;28;20057;-60
2022/04/06 04:58:36;;;;;;;5.32;3.33;;;;;;;;;;20750125;28;20049;-59
2022/04/06 05:08:39;;;;;;;5.13;3.00;;;;;;;;;;20750211;28;20132;-59
2022/04/06 05:18:41;;;;;;;5.70;3.15;;;;;;;;;;20749160;28;20052;-60
2022/04/06 05:28:44;;;;;;;4.32;3.13;;;;;;;;;;20748623;28;20057;-60
2022/04/06 05:38:47;;;;;;;6.43;3.85;;;;;;;;;;20748580;28;20139;-59
2022/04/06 05:48:49;;;;;;;5.95;4.22;;;;;;;;;;20747667;28;20064;-59
2022/04/06 05:58:51;;;;;;;8.63;4.72;;;;;;;;;;20746886;28;20053;-60
2022/04/06 06:08:53;;;;;;;6.18;4.15;;;;;;;;;;20746701;28;20196;-67
2022/04/06 06:18:56;;;;;;;10.48;5.93;;;;;;;;;;20746477;28;20046;-58
2022/04/06 06:28:59;;;;;;;13.88;8.35;;;;;;;;;;20753963;28;20514;-58
2022/04/06 06:39:01;;;;;;;12.82;5.93;;;;;;;;;;20761679;28;20142;-64
2022/04/06 06:49:04;;;;;;;7.68;5.18;;;;;;;;;;20759815;28;20137;-63
2022/04/06 06:59:06;;;;;;;9.05;5.50;;;;;;;;;;20758643;28;20042;-65
2022/04/06 07:09:08;;;;;;;9.73;6.30;;;;;;;;;;20757718;28;20104;-63
2022/04/06 07:19:10;;;;;;;16.13;6.47;;;;;;;;;;20757805;28;20053;-64
2022/04/06 07:29:15;;;;;;;10.10;5.60;;;;;;;;;;20757919;28;20053;-60
2022/04/06 07:39:17;;;;;;;11.35;7.00;;;;;;;;;;20755282;28;20058;-75
2022/04/06 07:49:18;;;;;;;12.50;6.75;;;;;;;;;;20754414;28;20134;-68
2022/04/06 07:59:20;;;;;;;11.35;5.65;;;;;;;;;;20754231;28;20540;-70
2022/04/06 08:09:23;;;;;;;9.45;5.20;;;;;;;;;;20755815;28;20492;-70
2022/04/06 08:19:25;;;;;;;11.00;5.40;;;;;;;;;;20753037;28;20041;-57
2022/04/06 08:29:27;;;;;;;9.77;4.72;;;;;;;;;;20752673;28;20050;-55
2022/04/06 08:39:29;;;;;;;11.32;4.45;;;;;;;;;;20751442;28;20132;-59
2022/04/06 08:49:32;;;;;;;8.38;4.63;;;;;;;;;;20750630;28;20046;-58
2022/04/06 08:59:34;;;;;;;7.85;3.35;;;;;;;;;;20750037;28;20061;-57
2022/04/06 09:09:36;;;;;;;8.82;4.25;;;;;;;;;;20748869;28;20492;-66
2022/04/06 09:19:39;;;;;;;6.50;4.90;;;;;;;;;;20749480;28;20050;-62
2022/04/06 09:29:41;;;;;;;7.60;4.30;;;;;;;;;;20747325;28;20066;-56
2022/04/06 09:39:44;;;;;;;9.40;4.22;;;;;;;;;;20746196;28;20386;-67
2022/04/06 09:49:46;;;;;;;8.35;4.28;;;;;;;;;;20747528;28;20108;-68
2022/04/06 09:59:48;;;;;;;8.63;4.45;;;;;;;;;;20749678;28;20049;-67
2022/04/06 10:09:51;;;;;;;7.13;4.13;;;;;;;;;;20761619;28;20050;-65
2022/04/06 10:20:02;;;;;;;7.47;4.88;;;;;;;;;;20762562;28;20092;-62
2022/04/06 10:30:10;;;;;;;9.52;4.78;;;;;;;;;;20761226;28;20049;-59
2022/04/06 10:40:12;;;;;;;10.70;4.63;;;;;;;;;;20720350;28;20085;-60
2022/04/06 10:50:14;;;;;;;6.93;4.57;;;;;;;;;;20718652;28;20130;-57
2022/04/06 11:00:16;;;;;;;7.40;4.22;;;;;;;;;;20710218;28;20050;-56
2022/04/06 11:10:22;;;;;;;7.82;5.13;;;;;;;;;;20704278;28;20057;-56
2022/04/06 11:20:31;;;;;;;7.72;3.92;;;;;;;;;;20736780;28;20042;-55
2022/04/06 11:30:34;;;;;;;6.03;3.40;;;;;;;;;;20742044;28;20531;-57
2022/04/06 11:40:37;;;;;;;4.70;3.17;;;;;;;;;;20755468;28;20061;-61
2022/04/06 11:50:39;;;;;;;6.95;4.03;;;;;;;;;;20755140;28;20417;-60
2022/04/06 12:00:41;;;;;;;5.53;3.65;;;16.90;46.30;;;;;;20754001;28;20153;-62
2022/04/06 12:10:53;;;;;;;5.22;3.38;;;16.00;47.70;;;;;;20753001;28;20046;-62
2022/04/06 12:20:55;;;;;;;4.50;3.28;;;14.90;50.00;;;;;;20753681;28;20076;-61
2022/04/06 12:31:00;;;;;;;5.28;2.90;;;14.60;51.20;;;;;;20752439;28;20092;-59
2022/04/06 12:41:09;;;;;;;5.05;3.15;;;14.80;50.80;;;;;;20751844;28;20069;-65
2022/04/06 12:51:21;;;;;;;5.32;3.15;;;15.10;50.10;;;;;;20751040;28;20085;-62
2022/04/06 13:01:23;;;;;;;4.90;3.00;;;15.40;49.30;;;;;;20751371;28;20515;-63
2022/04/06 13:11:25;;;;;;;5.40;2.75;;;;;;;;;;20748400;28;20183;-61
2022/04/06 13:21:33;;;;;;;6.78;2.80;;;16.40;47.20;;;;;;20750450;28;20484;-63
2022/04/06 13:31:39;;;;;;;4.07;2.80;;;17.10;45.50;;;;;;20748166;28;20050;-63
2022/04/06 13:41:44;;;;;;;3.50;2.10;;;16.80;45.90;;;;;;20747316;28;20065;-62
2022/04/06 13:51:46;;;;;;;5.53;2.30;;;17.50;43.80;;;;;;20747319;28;20072;-63
2022/04/06 14:01:48;;;;;;;2.13;1.75;;;16.70;44.80;;;;;;20746876;28;20053;-62
2022/04/06 14:11:51;;;;;;;4.03;1.90;;;16.90;44.50;;;;;;20746086;28;20392;-62
2022/04/06 14:21:54;;;;;;;3.53;1.27;;;17.00;44.20;;;;;;20746656;28;20050;-60
2022/04/06 14:31:56;;;;;;;3.63;2.00;;;17.20;43.20;;;;;;20746738;28;20049;-61
2022/04/06 14:41:58;;;;;;;3.80;1.30;;;17.40;43.70;;;;;;20745623;28;20054;-62
2022/04/06 14:52:00;;;;;;;3.53;1.52;;;17.50;43.10;;;;;;20757185;28;20089;-62
2022/04/06 15:02:01;;;;;;;2.28;0.93;;;17.70;43.10;;;;;;20759011;28;20051;-61
2022/04/06 15:12:03;;;;;;;3.78;1.20;;;18.00;41.80;;;;;;20758750;28;20108;-64
2022/04/06 15:22:05;;;;;;;2.53;1.10;;;;;;;;;;20758816;28;20045;-61
2022/04/06 15:32:07;;;;;;;2.65;0.88;;;;;;;;;;20757589;28;20506;-61
2022/04/06 15:42:09;;;;;;;3.03;1.67;;;;;;;;;;20755342;28;20464;-61
2022/04/06 15:52:12;;;;;;;3.33;0.82;;;;;;;;;;20755707;28;20056;-59
2022/04/06 16:02:14;;;;;;;2.97;1.63;;;;;;;;;;20755633;28;20058;-57
2022/04/06 16:12:17;;;;;;;2.20;1.00;;;;;;;;;;20755060;28;20138;-55
2022/04/06 16:22:19;;;;;;;1.73;1.30;;;;;;;;;;20753426;28;20054;-56
2022/04/06 16:32:24;;;;;;;3.35;1.00;;;;;;;;;;20753001;28;20116;-57
2022/04/06 16:42:27;;;;;;;2.63;0.98;;;;;;;;;;20753231;28;20130;-57
2022/04/06 16:52:41;;;;;;;1.52;0.95;;;;;;;;;;20751789;28;20065;-64
2022/04/06 17:02:44;;;;;;;2.10;0.98;;;;;;;;;;20726341;28;20046;-60
2022/04/06 17:12:46;;;;;;;4.25;1.20;;;;;;;;;;20694533;28;20184;-63
2022/04/06 17:22:47;;;;;;;2.53;1.10;;;;;;;;;;20668048;28;20077;-62
2022/04/06 17:32:50;;;;;;;4.50;1.23;;;;;;;;;;20738974;28;20141;-57
2022/04/06 17:42:52;;;;;;;3.38;1.02;;;;;;;;;;20746399;28;20065;-58
2022/04/06 17:52:54;;;;;;;1.95;1.02;;;;;;;;;;20746514;28;20072;-58
2022/04/06 18:02:58;;;;;;;5.10;1.55;;;;;;;;;;20745225;28;20104;-75
2022/04/06 18:23:21;;;;;;;7.03;1.10;;;;;;;;;;20751676;28;20129;-69
2022/04/06 18:33:26;;;;;;;2.33;1.17;;;;;;;;;;20759084;28;20050;-64
2022/04/06 18:43:30;;;;;;;4.88;1.55;;;;;;;;;;20755933;28;20092;-58
2022/04/06 18:53:31;;;;;;;7.57;1.60;;;;;;;;;;20758246;28;20050;-61
2022/04/06 19:03:35;;;;;;;3.72;1.98;;;;;;;;;;20756181;28;20340;-65
2022/04/06 19:13:37;;;;;;;13.18;6.22;;;;;;;;;;20756889;28;20045;-62
2022/04/06 19:23:38;;;;;;;7.10;2.10;;;16.70;46.80;;;;;;20755261;28;20049;-69
2022/04/06 19:33:40;;;;;;;3.83;1.80;;;16.00;48.70;;;;;;20755138;28;20436;-60
2022/04/06 19:43:41;;;;;;;3.42;1.55;;;16.00;48.70;;;;;;20754945;28;20415;-63
2022/04/06 19:53:43;;;;;;;5.43;1.67;;;16.00;49.00;;;;;;20755341;28;20096;-61
2022/04/06 20:03:45;;;;;;;5.50;2.22;;;;;;;;;;20755020;28;20046;-62
2022/04/06 20:13:47;;;;;;;4.57;1.98;;;;;;;;;;20755009;28;20480;-66
2022/04/06 20:23:48;;;;;;;3.47;1.90;;;15.90;47.50;;;;;;20754244;28;20078;-63
2022/04/06 20:33:50;;;;;;;3.40;1.75;;;;;;;;;;20752704;28;20054;-61
2022/04/06 20:43:52;;;;;;;5.85;1.88;;;;;;;;;;20750781;28;20050;-61
2022/04/06 20:53:54;;;;;;;4.45;2.40;;;;;;;;;;20750619;28;20144;-64
2022/04/06 21:03:56;;;;;;;4.32;2.35;;;;;;;;;;20751521;28;20126;-64
2022/04/06 21:13:58;;;;;;;5.40;2.08;;;;;;;;;;20750639;28;20050;-63
2022/04/06 21:23:59;;;;;;;5.15;2.08;;;;;;;;;;20749435;28;20049;-62
2022/04/06 21:34:04;;;;;;;4.47;2.00;;;;;;;;;;20748612;28;20048;-63
2022/04/06 21:44:06;;;;;;;3.40;2.00;;;;;;;;;;20748868;28;20058;-62
2022/04/06 21:54:13;;;;;;;2.50;1.38;;;;;;;;;;20749610;28;20132;-62
2022/04/06 22:04:15;;;;;;;5.30;1.77;;;;;;;;;;20764703;28;20509;-62
2022/04/06 22:14:16;;;;;;;4.22;1.58;;;;;;;;;;20764105;28;20046;-60
2022/04/06 22:24:18;;;;;;;8.07;1.92;;;;;;;;;;20762686;28;20053;-63
2022/04/06 22:34:20;;;;;;;2.53;1.42;;;;;;;;;;20761861;28;20559;-61
2022/04/06 22:44:22;;;;;;;4.72;1.45;;;;;;;;;;20760999;28;20463;-62
2022/04/06 22:54:24;;;;;;;3.70;1.88;;;;;;;;;;20760955;28;20481;-63
2022/04/06 23:04:25;;;;;;;6.35;2.05;;;;;;;;;;20760458;28;20405;-64
2022/04/06 23:14:29;;;;;;;112.63;57.25;;;;;;;;;;20758673;28;20084;-65
2022/04/06 23:24:31;;;;;;;3.38;1.90;;;;;;;;;;20759571;28;20164;-64
2022/04/06 23:34:33;;;;;;;3.72;1.50;;;;;;;;;;20756815;28;20137;-61
2022/04/06 23:44:35;;;;;;;4.78;2.03;;;;;;;;;;20757275;28;20050;-63
2022/04/06 23:54:37;;;;;;;3.42;1.60;;;;;;;;;;20756618;28;20144;-64
